Time;durP1;ratioP1;P1;durP2;ratioP2;P2;SDS_P1;SDS_P2;PMS_P1;PMS_P2;Temp;Humidity;BMP_temperature;BMP_pressure;BME280_temperature;BME280_humidity;BME280_pressure;Samples;Min_cycle;Max_cycle;Signal;HPM_P1;HPM_P2
2022/02/03 00:02:53;;;;;;;10.68;6.05;;;;;;;;;;5050763;28;20033;-67
2022/02/03 00:08:34;;;;;;;11.32;6.90;;;;;;;;;;5051517;28;20059;-69
2022/02/03 00:26:48;;;;;;;9.50;6.20;;;;;;;;;;5056704;28;20041;-69
2022/02/03 00:35:30;;;;;;;11.27;6.50;;;;;;;;;;5055549;28;20044;-68
2022/02/03 00:50:26;;;;;;;11.77;6.85;;;;;;;;;;5054346;28;20017;-69
2022/02/03 00:53:14;;;;;;;10.95;6.30;;;;;;;;;;5055031;28;20024;-70
2022/02/03 00:56:07;;;;;;;10.52;6.38;;;;;;;;;;5054172;28;20480;-69
2022/02/03 00:59:07;;;;;;;10.75;7.72;;;;;;;;;;5055398;28;20028;-68
2022/02/03 01:01:54;;;;;;;9.48;6.28;;;;;;;;;;5054271;28;20439;-69
2022/02/03 01:04:41;;;;;;;10.05;6.68;;;;;;;;;;5054147;28;20021;-68
2022/02/03 01:07:27;;;;;;;12.68;7.32;;;;;;;;;;5055290;28;20025;-68
2022/02/03 01:10:19;;;;;;;11.90;7.43;;;;;;;;;;5054415;28;20021;-69
2022/02/03 01:13:17;;;;;;;11.55;6.88;;;;;;;;;;5053920;28;20078;-69
2022/02/03 01:19:29;;;;;;;12.10;6.70;;;;;;;;;;5054383;28;20021;-66
2022/02/03 01:34:55;;;;;;;11.68;8.23;;;;;;;;;;5054857;28;20074;-68
2022/02/03 01:44:19;;;;;;;12.63;8.48;;;;;;;;;;5053864;28;20036;-67
2022/02/03 01:47:24;;;;;;;13.50;6.88;;;;;;;;;;5053875;28;20021;-67
2022/02/03 01:53:00;;;;;;;10.52;7.07;;;;;;;;;;5053577;28;20025;-67
2022/02/03 01:55:47;;;;;;;13.73;8.55;;;;;;;;;;5038739;28;20112;-67
2022/02/03 01:58:44;;;;;;;12.20;8.30;;;;;;;;;;5052581;28;20186;-68
2022/02/03 02:01:33;;;;;;;14.20;9.20;;;;;;;;;;5052580;28;20028;-67
2022/02/03 02:04:49;;;;;;;11.30;6.93;;;;;;;;;;5052784;28;20407;-67
2022/02/03 02:07:48;;;;;;;11.60;8.25;;;;;;;;;;5040096;28;20098;-67
2022/02/03 02:11:16;;;;;;;11.50;7.93;;;;;;;;;;5052555;28;20028;-68
2022/02/03 02:14:02;;;;;;;11.50;7.70;;;;;;;;;;5053029;28;20079;-70
2022/02/03 02:44:39;;;;;;;13.07;7.82;;;;;;;;;;5052317;28;20087;-68
2022/02/03 02:47:29;;;;;;;14.35;9.10;;;;;;;;;;5039183;28;20463;-67
2022/02/03 02:50:19;;;;;;;14.45;8.27;;;;;;;;;;5051787;28;20051;-67
2022/02/03 02:56:24;;;;;;;10.40;6.93;;;;;;;;;;5053204;28;20025;-67
2022/02/03 03:36:24;;;;;;;13.02;7.68;;;;;;;;;;5013536;28;20040;-75
2022/02/03 03:39:12;;;;;;;15.20;8.63;;;;;;;;;;5032522;28;20036;-74
2022/02/03 03:42:00;;;;;;;11.25;7.57;;;;;;;;;;5032079;28;20033;-71
2022/02/03 03:44:47;;;;;;;16.83;10.07;;;;;;;;;;5031443;28;20108;-67
2022/02/03 03:47:34;;;;;;;13.32;8.60;;;;;;;;;;5018445;28;20021;-68
2022/02/03 03:50:24;;;;;;;15.48;9.15;;;;;;;;;;5032371;28;20377;-68
2022/02/03 03:53:21;;;;;;;12.43;8.23;;;;;;;;;;5031884;28;20024;-67
2022/02/03 03:56:33;;;;;;;12.20;7.78;;;;;;;;;;5031804;28;20041;-68
2022/02/03 04:29:19;;;;;;;9.95;6.97;;;;;;;;;;5052092;28;20025;-68
2022/02/03 04:57:05;;;;;;;9.43;5.80;;;;;;;;;;5024201;28;20029;-66
2022/02/03 05:00:49;;;;;;;11.70;8.20;;;;;;;;;;5053859;28;20025;-65
2022/02/03 05:04:08;;;;;;;14.57;7.75;;;;;;;;;;5053569;28;20176;-65
2022/02/03 05:10:16;;;;;;;15.85;9.85;;;;;;;;;;5054679;28;20060;-64
2022/02/03 05:14:42;;;;;;;10.55;6.55;;;;;;;;;;5053523;28;20017;-69
2022/02/03 05:20:25;;;;;;;10.63;6.95;;;;;;;;;;5054616;28;20032;-65
2022/02/03 06:13:14;;;;;;;11.75;7.00;;;;;;;;;;4972884;28;20115;-71
2022/02/03 06:15:39;;;;;;;10.82;7.60;;;;;;;;;;5050835;28;20405;-71
2022/02/03 06:21:39;;;;;;;14.02;9.63;;;;;;;;;;5053832;28;20024;-71
2022/02/03 06:27:37;;;;;;;16.70;9.68;;;;;;;;;;5053487;28;20116;-67
2022/02/03 06:30:23;;;;;;;14.65;9.07;;;;;;;;;;5052862;28;20063;-67
2022/02/03 06:33:09;;;;;;;15.68;9.00;;;;;;;;;;5039231;28;20024;-67
2022/02/03 06:35:55;;;;;;;11.23;7.13;;;;;;;;;;5038617;28;20021;-68
2022/02/03 06:38:40;;;;;;;13.23;9.70;;;;;;;;;;5052538;28;20033;-67
2022/02/03 06:41:26;;;;;;;15.65;9.88;;;;;;;;;;5052456;28;20512;-68
2022/02/03 06:44:14;;;;;;;13.52;9.95;;;;;;;;;;5051711;28;20029;-68
2022/02/03 06:47:06;;;;;;;14.70;8.90;;;;;;;;;;5051506;28;20040;-69
2022/02/03 06:50:00;;;;;;;14.63;8.63;;;;;;;;;;5051358;28;20414;-71
2022/02/03 06:56:07;;;;;;;13.05;8.57;;;;;;;;;;5035965;28;20025;-69
2022/02/03 06:58:57;;;;;;;12.35;7.60;;;;;;;;;;5051471;28;20414;-67
2022/02/03 07:01:45;;;;;;;13.68;8.68;;;;;;;;;;5051909;28;20033;-66
2022/02/03 07:04:38;;;;;;;11.82;7.68;;;;;;;;;;5052319;28;20083;-68
2022/02/03 07:07:25;;;;;;;10.20;7.55;;;;;;;;;;5037874;28;20033;-64
2022/02/03 07:10:11;;;;;;;13.13;8.82;;;;;;;;;;5053245;28;20119;-65
2022/02/03 07:12:58;;;;;;;14.10;8.40;;;;;;;;;;5052236;28;20033;-65
2022/02/03 07:15:44;;;;;;;11.82;8.70;;;;;;;;;;5053086;28;20039;-68
2022/02/03 07:18:29;;;;;;;14.27;9.82;;;;;;;;;;5051424;28;20025;-66
2022/02/03 07:21:15;;;;;;;12.05;8.18;;;;;;;;;;5052139;28;20017;-67
2022/02/03 07:24:01;;;;;;;14.52;9.35;;;;;;;;;;5051900;28;20087;-66
2022/02/03 07:26:46;;;;;;;16.55;9.40;;;;;;;;;;5037074;28;20051;-67
2022/02/03 07:29:32;;;;;;;15.90;10.25;;;;;;;;;;5051376;28;20036;-67
2022/02/03 07:32:18;;;;;;;11.45;8.30;;;;;;;;;;5052910;28;20098;-65
2022/02/03 07:35:04;;;;;;;17.00;8.30;;;;;;;;;;5050957;28;20495;-66
2022/02/03 07:37:51;;;;;;;12.35;7.45;;;;;;;;;;5050950;28;20439;-65
2022/02/03 07:40:37;;;;;;;12.13;8.23;;;;;;;;;;5052958;28;20024;-67
2022/02/03 07:43:22;;;;;;;12.95;7.95;;;;;;;;;;5052701;28;20064;-65
2022/02/03 07:46:08;;;;;;;12.57;7.68;;;;;;;;;;5050959;28;20018;-64
2022/02/03 07:48:53;;;;;;;11.45;7.30;;;;;;;;;;5051504;28;20075;-68
2022/02/03 07:51:39;;;;;;;14.65;9.50;;;;;;;;;;5051490;28;20499;-65
2022/02/03 07:54:24;;;;;;;10.95;7.65;;;;;;;;;;5051544;28;20060;-66
2022/02/03 07:57:10;;;;;;;13.32;8.63;;;;;;;;;;5051987;28;20025;-65
2022/02/03 07:59:56;;;;;;;12.13;7.72;;;;;;;;;;5051055;28;20021;-70
2022/02/03 08:02:43;;;;;;;12.25;8.75;;;;;;;;;;5036810;28;20370;-67
2022/02/03 08:05:28;;;;;;;14.25;10.10;;;;;;;;;;5037473;28;20464;-66
2022/02/03 08:11:07;;;;;;;14.52;9.35;;;;;;;;;;5051406;28;20017;-65
2022/02/03 08:14:06;;;;;;;11.30;7.05;;;;;;;;;;5050769;28;20087;-66
2022/02/03 08:17:18;;;;;;;9.70;7.35;;;;;;;;;;5050693;28;20032;-65
2022/02/03 08:20:02;;;;;;;11.88;7.78;;;;;;;;;;5051570;28;20082;-68
2022/02/03 08:23:07;;;;;;;12.25;7.68;;;;;;;;;;5050735;28;20099;-65
2022/02/03 08:26:08;;;;;;;11.95;8.40;;;;;;;;;;5031128;28;20099;-64
2022/02/03 08:29:17;;;;;;;12.75;9.38;;;;;;;;;;5030656;28;20040;-64
2022/02/03 08:32:10;;;;;;;11.67;7.70;;;;;;;;;;5034477;28;20441;-64
2022/02/03 08:37:45;;;;;;;13.73;8.75;;;;;;;;;;5035128;28;20029;-80
2022/02/03 08:40:43;;;;;;;13.63;8.88;;;;;;;;;;5034663;28;20021;-71
2022/02/03 08:43:31;;;;;;;10.32;7.10;;;;;;;;;;5033937;28;20048;-71
2022/02/03 08:46:16;;;;;;;10.65;7.32;;;;;;;;;;5033726;28;20105;-69
2022/02/03 08:49:06;;;;;;;9.73;6.85;;;;;;;;;;5034354;28;20032;-72
2022/02/03 08:51:52;;;;;;;10.60;7.63;;;;;;;;;;5034892;28;20014;-72
2022/02/03 08:54:39;;;;;;;11.98;8.27;;;;;;;;;;5033878;28;20029;-68
2022/02/03 08:58:03;;;;;;;10.65;7.97;;;;;;;;;;5033513;28;20100;-67
2022/02/03 09:00:48;;;;;;;9.88;7.40;;;;;;;;;;5035357;28;20032;-67
2022/02/03 09:58:19;;;;;;;2.72;2.13;;;;;;;;;;5053485;28;20107;-63
2022/02/03 10:01:09;;;;;;;3.72;2.60;;;;;;;;;;5052719;28;20122;-67
2022/02/03 10:04:03;;;;;;;;;;;;;;;;;;5053190;28;20039;-65
2022/02/03 10:06:55;;;;;;;3.95;2.63;;;;;;;;;;5040318;28;19905;-64
2022/02/03 10:09:42;;;;;;;3.20;2.35;;;;;;;;;;5052900;28;20033;-66
2022/02/03 10:12:29;;;;;;;4.78;2.35;;;;;;;;;;5039928;28;20021;-65
2022/02/03 10:15:14;;;;;;;3.97;2.28;;;;;;;;;;5052368;28;20025;-64
2022/02/03 10:18:00;;;;;;;3.00;1.95;;;;;;;;;;5052880;28;20032;-66
2022/02/03 10:20:49;;;;;;;1.90;1.70;;;;;;;;;;5052444;28;20036;-66
2022/02/03 10:24:05;;;;;;;5.70;2.22;;;;;;;;;;5052489;28;20087;-65
2022/02/03 10:26:52;;;;;;;3.53;1.67;;;;;;;;;;5032781;28;20041;-68
2022/02/03 10:29:44;;;;;;;2.97;2.05;;;;;;;;;;5040089;28;20040;-68
2022/02/03 10:32:35;;;;;;;2.78;1.70;;;;;;;;;;5052415;28;20033;-68
2022/02/03 10:41:21;;;;;;;3.08;2.00;;;;;;;;;;5052790;28;20032;-70
2022/02/03 11:04:27;;;;;;;6.20;5.80;;;;;;;;;;5080518;28;20036;-68
2022/02/03 11:07:14;;;;;;;3.80;3.50;;;;;;;;;;5067842;28;20360;-69
2022/02/03 11:10:15;;;;;;;2.00;1.80;;;;;;;;;;5055503;28;20037;-69
2022/02/03 11:13:01;;;;;;;3.10;1.45;;;;;;;;;;5076689;28;20036;-80
2022/02/03 11:15:48;;;;;;;2.65;1.40;;;;;;;;;;5045981;28;20036;-82
2022/02/03 11:18:34;;;;;;;2.90;2.10;;;;;;;;;;5071725;28;20470;-84
2022/02/03 11:21:20;;;;;;;3.08;1.80;;;;;;;;;;5054430;28;20048;-81
2022/02/03 11:24:13;;;;;;;2.00;1.75;;;;;;;;;;5054133;28;20284;-75
2022/02/03 11:30:30;;;;;;;2.92;1.67;;;;;;;;;;5065252;28;20024;-67
2022/02/03 11:51:24;;;;;;;2.20;1.40;;;;;;;;;;5084271;28;20093;-63
2022/02/03 12:21:03;;;;;;;2.05;1.50;;;;;;;;;;5069700;28;20032;-62
2022/02/03 12:23:59;;;;;;;4.28;1.70;;;;;;;;;;5070867;28;20032;-69
2022/02/03 12:26:51;;;;;;;2.22;1.33;;;;;;;;;;5074178;28;20036;-63
2022/02/03 12:29:47;;;;;;;1.60;1.50;;;;;;;;;;5061430;28;20038;-64
2022/02/03 12:38:34;;;;;;;2.03;1.40;;;;;;;;;;5072225;28;20219;-64
2022/02/03 12:41:34;;;;;;;1.50;1.40;;;;;;;;;;5076013;28;20028;-63
2022/02/03 12:44:24;;;;;;;3.03;1.75;;;;;;;;;;5074795;28;20379;-67
2022/02/03 12:47:09;;;;;;;2.22;1.50;;;;;;;;;;5075186;28;20111;-62
2022/02/03 12:49:55;;;;;;;2.55;1.40;;;;;;;;;;5075444;28;20131;-66
2022/02/03 12:52:42;;;;;;;2.63;1.70;;;;;;;;;;5078254;28;20031;-63
2022/02/03 12:55:30;;;;;;;2.47;1.50;;;;;;;;;;5059075;28;20051;-66
2022/02/03 12:58:16;;;;;;;2.42;1.67;;;;;;;;;;5073787;28;20036;-62
2022/02/03 13:01:11;;;;;;;2.85;1.70;;;;;;;;;;5075695;28;20550;-68
2022/02/03 13:03:57;;;;;;;3.50;1.42;;;;;;;;;;5074516;28;20051;-68
2022/02/03 13:06:52;;;;;;;4.65;1.70;;;;;;;;;;5074906;28;20082;-69
2022/02/03 13:09:51;;;;;;;8.80;3.10;;;;;;;;;;5073102;28;20116;-67
2022/02/03 13:12:42;;;;;;;3.90;1.93;;;;;;;;;;5065507;28;20040;-68
2022/02/03 13:15:30;;;;;;;2.13;1.48;;;;;;;;;;5078066;28;20361;-68
2022/02/03 13:18:25;;;;;;;2.65;1.45;;;;;;;;;;5074282;28;20032;-67
2022/02/03 13:21:31;;;;;;;4.53;1.90;;;;;;;;;;5072284;28;20066;-72
2022/02/03 13:27:10;;;;;;;1.98;1.60;;;;;;;;;;5062098;28;20062;-68
2022/02/03 13:32:45;;;;;;;2.70;1.70;;;;;;;;;;5072814;28;20036;-69
2022/02/03 13:35:45;;;;;;;1.98;1.45;;;;;;;;;;5052753;28;20089;-68
2022/02/03 13:38:44;;;;;;;;;;;;;;;;;;5070037;28;20115;-66
2022/02/03 13:41:32;;;;;;;4.10;1.80;;;;;;;;;;5075952;28;19914;-68
2022/02/03 13:44:17;;;;;;;2.72;1.60;;;;;;;;;;5073013;28;20044;-68
2022/02/03 13:47:22;;;;;;;3.17;1.70;;;;;;;;;;5073325;28;20148;-68
2022/02/03 13:50:26;;;;;;;1.83;1.33;;;;;;;;;;5072261;28;20047;-67
2022/02/03 13:53:18;;;;;;;2.88;1.58;;;;;;;;;;5074520;28;20044;-66
2022/02/03 14:13:17;;;;;;;3.70;1.60;;;;;;;;;;5069872;28;20074;-73
2022/02/03 14:21:14;;;;;;;3.03;1.63;;;;;;;;;;5074816;28;20039;-69
2022/02/03 14:29:57;;;;;;;2.75;1.55;;;;;;;;;;5070866;28;20621;-64
2022/02/03 14:32:43;;;;;;;1.92;1.40;;;;;;;;;;5071456;28;20055;-63
2022/02/03 14:35:29;;;;;;;3.97;1.70;;;;;;;;;;5067749;28;20510;-66
2022/02/03 14:38:29;;;;;;;2.90;1.75;;;;;;;;;;5067326;28;20497;-67
2022/02/03 14:44:01;;;;;;;2.55;1.85;;;;;;;;;;5067247;28;20040;-68
2022/02/03 14:46:46;;;;;;;2.67;1.90;;;;;;;;;;5082998;28;20032;-67
2022/02/03 14:49:32;;;;;;;3.85;1.63;;;;;;;;;;5071724;28;20036;-66
2022/02/03 14:52:30;;;;;;;2.30;1.50;;;;;;;;;;5074786;28;20036;-68
2022/02/03 14:58:25;;;;;;;1.70;1.45;;;;;;;;;;5068463;28;20042;-68
2022/02/03 15:01:12;;;;;;;2.63;1.75;;;;;;;;;;5073777;28;20032;-67
2022/02/03 15:04:03;;;;;;;2.47;1.80;;;;;;;;;;5071729;28;20036;-68
2022/02/03 15:06:56;;;;;;;2.70;1.58;;;;;;;;;;5057574;28;20077;-68
2022/02/03 15:15:18;;;;;;;3.50;1.90;;;;;;;;;;5060049;28;20028;-64
2022/02/03 15:18:03;;;;;;;2.58;1.73;;;;;;;;;;5078125;28;20059;-65
2022/02/03 15:20:48;;;;;;;2.17;1.75;;;;;;;;;;5075137;28;20055;-70
2022/02/03 15:23:34;;;;;;;3.78;1.70;;;;;;;;;;5073231;28;20034;-66
2022/02/03 15:26:21;;;;;;;3.83;2.33;;;;;;;;;;5071479;28;20082;-70
2022/02/03 15:29:06;;;;;;;2.88;1.58;;;;;;;;;;5073344;28;20115;-70
2022/02/03 15:31:52;;;;;;;5.15;1.40;;;;;;;;;;5071262;28;20046;-73
2022/02/03 15:34:37;;;;;;;4.40;2.10;;;;;;;;;;5069577;28;20134;-74
2022/02/03 15:37:22;;;;;;;4.25;1.50;;;;;;;;;;5072484;28;20374;-75
2022/02/03 15:40:15;;;;;;;3.00;1.70;;;;;;;;;;5071261;28;20038;-75
2022/02/03 15:43:07;;;;;;;3.17;1.55;;;;;;;;;;5080114;28;20040;-76
2022/02/03 15:45:56;;;;;;;3.75;1.52;;;;;;;;;;5072168;28;20043;-68
2022/02/03 15:48:49;;;;;;;4.93;1.45;;;;;;;;;;5070444;28;20032;-71
2022/02/03 16:03:35;;;;;;;4.60;1.80;;;;;;;;;;5072025;28;20127;-68
2022/02/03 16:18:37;;;;;;;3.67;2.30;;;;;;;;;;5071991;28;20444;-67
2022/02/03 16:54:08;;;;;;;4.55;2.70;;;;;;;;;;5074805;28;20059;-69
2022/02/03 16:56:59;;;;;;;7.38;2.90;;;;;;;;;;5075148;28;20032;-70
2022/02/03 16:59:52;;;;;;;14.30;3.45;;;;;;;;;;5075291;28;20044;-70
2022/02/03 17:02:38;;;;;;;5.20;2.97;;;;;;;;;;5076279;28;20039;-68
2022/02/03 17:05:23;;;;;;;6.82;3.78;;;;;;;;;;5072685;28;20036;-68
2022/02/03 17:08:08;;;;;;;5.78;3.47;;;;;;;;;;5078049;28;20040;-71
2022/02/03 17:10:54;;;;;;;6.95;3.03;;;;;;;;;;5074177;28;20032;-75
2022/02/03 17:13:39;;;;;;;6.60;3.15;;;;;;;;;;5070274;28;20036;-71
2022/02/03 17:16:24;;;;;;;8.07;2.72;;;;;;;;;;5077913;28;20016;-71
2022/02/03 17:19:10;;;;;;;6.00;3.28;;;;;;;;;;5059379;28;20111;-68
2022/02/03 17:21:55;;;;;;;6.95;3.53;;;;;;;;;;5061021;28;20035;-69
2022/02/03 17:24:47;;;;;;;6.07;3.00;;;;;;;;;;5074218;28;20121;-69
2022/02/03 18:07:22;;;;;;;5.90;3.50;;;;;;;;;;5070795;28;20032;-65
2022/02/03 18:31:08;;;;;;;5.70;3.08;;;;;;;;;;5079252;28;20480;-65
2022/02/03 18:57:43;;;;;;;7.15;3.15;;;;;;;;;;5054867;28;20614;-67
2022/02/03 19:09:52;;;;;;;9.43;3.92;;;;;;;;;;5069325;28;20470;-69
2022/02/03 20:03:54;;;;;;;6.38;3.30;;;;;;;;;;5072327;28;20044;-68
2022/02/03 20:09:55;;;;;;;6.53;3.20;;;;;;;;;;5072089;28;20032;-71
2022/02/03 20:12:35;;;;;;;7.97;3.85;;;;;;;;;;5065750;28;20097;-70
2022/02/03 20:15:23;;;;;;;6.43;3.58;;;;;;;;;;5072416;28;20426;-70
2022/02/03 20:18:12;;;;;;;9.40;4.13;;;;;;;;;;5083040;28;20071;-69
2022/02/03 20:20:57;;;;;;;7.05;3.45;;;;;;;;;;5069225;28;20035;-70
2022/02/03 20:23:44;;;;;;;7.15;3.40;;;;;;;;;;5069864;28;20036;-69
2022/02/03 20:26:30;;;;;;;6.57;3.20;;;;;;;;;;5072183;28;20044;-70
2022/02/03 20:29:15;;;;;;;6.15;3.67;;;;;;;;;;5073811;28;20081;-69
2022/02/03 20:32:00;;;;;;;9.55;4.47;;;;;;;;;;5073910;28;20058;-68
2022/02/03 20:34:46;;;;;;;7.78;3.97;;;;;;;;;;5061252;28;20139;-69
2022/02/03 20:37:31;;;;;;;9.15;4.40;;;;;;;;;;5066483;28;20417;-70
2022/02/03 20:40:17;;;;;;;8.13;4.10;;;;;;;;;;5064581;28;21349;-66
2022/02/03 20:43:02;;;;;;;12.25;5.38;;;;;;;;;;5064503;28;20033;-65
2022/02/03 20:45:48;;;;;;;8.38;4.55;;;;;;;;;;5057377;28;20386;-72
2022/02/03 20:48:33;;;;;;;8.80;4.38;;;;;;;;;;5061488;28;20085;-73
2022/02/03 20:51:20;;;;;;;9.27;4.78;;;;;;;;;;5067823;28;20027;-75
2022/02/03 20:54:06;;;;;;;7.57;4.28;;;;;;;;;;5061187;28;20225;-73
2022/02/03 20:56:51;;;;;;;9.70;4.75;;;;;;;;;;5059110;28;20456;-74
2022/02/03 21:00:12;;;;;;;9.43;5.82;;;;;;;;;;5052804;28;20036;-74
2022/02/03 21:03:06;;;;;;;13.07;5.80;;;;;;;;;;5062409;28;20028;-67
2022/02/03 21:05:52;;;;;;;13.52;7.70;;;;;;;;;;5052132;28;20115;-70
2022/02/03 21:08:40;;;;;;;9.07;5.60;;;;;;;;;;5062217;28;20370;-69
2022/02/03 21:11:34;;;;;;;10.77;5.43;;;;;;;;;;5073060;28;20425;-70
2022/02/03 21:14:25;;;;;;;10.20;4.75;;;;;;;;;;5064045;28;20029;-70
2022/02/03 21:17:10;;;;;;;10.20;4.85;;;;;;;;;;5065561;28;20062;-74
2022/02/03 21:20:04;;;;;;;13.68;5.82;;;;;;;;;;5056914;28;20364;-69
2022/02/03 21:22:50;;;;;;;18.73;6.97;;;;;;;;;;5063779;28;20043;-74
2022/02/03 21:28:26;;;;;;;15.32;5.22;;;;;;;;;;5065316;28;20032;-72
2022/02/03 21:31:13;;;;;;;9.23;5.40;;;;;;;;;;5063213;28;20526;-74
2022/02/03 21:33:59;;;;;;;9.07;4.55;;;;;;;;;;5062867;28;20386;-74
2022/02/03 21:36:44;;;;;;;10.30;4.45;;;;;;;;;;5068570;28;20028;-67
2022/02/03 21:39:29;;;;;;;7.85;4.80;;;;;;;;;;5067992;28;20028;-69
2022/02/03 21:42:15;;;;;;;8.40;5.05;;;;;;;;;;5058908;28;20028;-66
2022/02/03 21:45:00;;;;;;;8.88;4.97;;;;;;;;;;5074163;28;20089;-68
2022/02/03 21:47:45;;;;;;;8.60;5.38;;;;;;;;;;5075110;28;20028;-69
2022/02/03 21:50:34;;;;;;;9.40;5.20;;;;;;;;;;5073506;28;20028;-67
2022/02/03 21:53:24;;;;;;;8.02;4.97;;;;;;;;;;5061476;28;20063;-68
2022/02/03 21:56:09;;;;;;;8.25;4.72;;;;;;;;;;5071505;28;20109;-71
2022/02/03 21:58:56;;;;;;;9.60;5.22;;;;;;;;;;5072138;28;20399;-66
2022/02/03 22:01:42;;;;;;;10.27;6.13;;;;;;;;;;5074250;28;20187;-64
2022/02/03 22:04:27;;;;;;;10.07;5.80;;;;;;;;;;5074553;28;20087;-66
2022/02/03 22:07:13;;;;;;;9.23;6.00;;;;;;;;;;5058809;28;20441;-64
2022/02/03 22:10:17;;;;;;;7.72;5.10;;;;;;;;;;5074012;28;20032;-65
2022/02/03 22:13:02;;;;;;;9.45;5.85;;;;;;;;;;5061100;28;20024;-70
2022/02/03 22:15:47;;;;;;;10.05;6.18;;;;;;;;;;5073481;28;20024;-67
2022/02/03 22:18:33;;;;;;;11.98;6.20;;;;;;;;;;5075231;28;20028;-66
2022/02/03 22:24:34;;;;;;;9.93;6.15;;;;;;;;;;5074923;28;20501;-68
2022/02/03 22:48:48;;;;;;;11.00;6.47;;;;;;;;;;5071619;28;20036;-69
2022/02/03 22:51:35;;;;;;;12.02;8.20;;;;;;;;;;5066067;28;20035;-65
2022/02/03 22:54:20;;;;;;;12.00;7.63;;;;;;;;;;5074271;28;20032;-67
2022/02/03 22:57:05;;;;;;;10.65;7.20;;;;;;;;;;5072930;28;20085;-66
2022/02/03 23:02:55;;;;;;;11.75;6.93;;;;;;;;;;5068136;28;20391;-67
2022/02/03 23:05:40;;;;;;;11.25;5.70;;;;;;;;;;5074259;28;20032;-69
2022/02/03 23:08:33;;;;;;;11.45;6.60;;;;;;;;;;5059615;28;20490;-68
2022/02/03 23:20:16;;;;;;;11.10;6.72;;;;;;;;;;5073911;28;20040;-74
2022/02/03 23:22:52;;;;;;;8.85;5.32;;;;;;;;;;5072232;28;20513;-73
2022/02/03 23:25:42;;;;;;;10.73;6.30;;;;;;;;;;5046374;28;20038;-73
2022/02/03 23:28:31;;;;;;;11.23;7.07;;;;;;;;;;5072437;28;20036;-66
2022/02/03 23:31:16;;;;;;;12.63;6.78;;;;;;;;;;5059668;28;20112;-68
2022/02/03 23:34:02;;;;;;;10.30;6.50;;;;;;;;;;5070899;28;20548;-68
2022/02/03 23:36:47;;;;;;;13.52;7.18;;;;;;;;;;5073623;28;20028;-65
2022/02/03 23:39:45;;;;;;;11.40;6.13;;;;;;;;;;5072692;28;20386;-67
2022/02/03 23:51:47;;;;;;;11.25;6.90;;;;;;;;;;5073316;28;20088;-68
